Time;durP1;ratioP1;P1;durP2;ratioP2;P2;SDS_P1;SDS_P2;PMS_P1;PMS_P2;Temp;Humidity;BMP_temperature;BMP_pressure;BME280_temperature;BME280_humidity;BME280_pressure;Samples;Min_cycle;Max_cycle;Signal;HPM_P1;HPM_P2
2021/04/17 00:02:21;;;;;;;22.30;8.30;;;4.50;85.00;;;;;;5107569;28;20184;-73
2021/04/17 00:04:47;;;;;;;14.27;8.23;;;4.50;85.20;;;;;;5109293;28;20193;-73
2021/04/17 00:07:15;;;;;;;12.90;8.17;;;4.50;85.20;;;;;;5109463;28;20826;-73
2021/04/17 00:09:42;;;;;;;15.80;8.67;;;4.40;85.50;;;;;;5107968;28;20443;-72
2021/04/17 00:12:14;;;;;;;16.00;8.80;;;4.40;85.90;;;;;;5108666;28;20416;-71
2021/04/17 00:14:41;;;;;;;17.30;9.07;;;4.40;86.00;;;;;;5095945;28;20420;-72
2021/04/17 00:17:07;;;;;;;12.63;8.50;;;4.40;86.30;;;;;;5109099;28;20850;-71
2021/04/17 00:19:34;;;;;;;14.27;8.40;;;4.40;86.50;;;;;;5106538;28;20468;-71
2021/04/17 00:22:00;;;;;;;16.80;9.00;;;4.40;86.60;;;;;;5106836;28;21035;-72
2021/04/17 00:24:26;;;;;;;16.30;9.23;;;4.40;86.50;;;;;;5109110;28;20499;-71
2021/04/17 00:26:52;;;;;;;15.50;9.23;;;4.40;86.20;;;;;;5108308;28;20182;-73
2021/04/17 00:29:18;;;;;;;16.10;9.23;;;4.30;86.30;;;;;;5106520;28;21063;-72
2021/04/17 00:31:44;;;;;;;16.93;10.07;;;4.30;86.80;;;;;;5108010;28;20458;-71
2021/04/17 00:34:09;;;;;;;13.80;8.43;;;4.30;86.80;;;;;;5095967;28;20720;-71
2021/04/17 00:36:36;;;;;;;15.47;9.13;;;4.30;86.90;;;;;;5114409;28;20191;-71
2021/04/17 00:39:07;;;;;;;20.37;9.47;;;4.30;86.80;;;;;;5107845;28;20214;-71
2021/04/17 00:41:33;;;;;;;14.60;8.13;;;4.30;86.60;;;;;;5107277;28;20519;-72
2021/04/17 00:43:59;;;;;;;15.53;8.40;;;4.30;86.90;;;;;;5109242;28;20416;-72
2021/04/17 00:46:25;;;;;;;18.23;9.23;;;4.30;87.00;;;;;;5095949;28;20500;-71
2021/04/17 00:48:51;;;;;;;18.77;9.93;;;4.30;87.00;;;;;;5108153;28;20443;-72
2021/04/17 00:51:17;;;;;;;16.50;9.27;;;4.30;87.00;;;;;;5105954;28;20956;-72
2021/04/17 00:53:43;;;;;;;17.00;9.57;;;4.30;86.90;;;;;;5098246;28;20430;-72
2021/04/17 00:56:11;;;;;;;16.70;9.37;;;4.20;87.00;;;;;;5111238;28;20503;-71
2021/04/17 00:58:38;;;;;;;15.07;8.20;;;4.20;87.30;;;;;;5100314;28;20453;-73
2021/04/17 01:01:05;;;;;;;18.23;9.27;;;4.30;87.40;;;;;;5086284;28;20427;-72
2021/04/17 01:03:34;;;;;;;19.60;9.90;;;4.30;87.30;;;;;;5096684;28;20412;-71
2021/04/17 01:06:07;;;;;;;22.53;9.30;;;4.30;87.10;;;;;;5105834;28;21327;-72
2021/04/17 01:08:58;;;;;;;19.60;10.20;;;4.40;87.00;;;;;;5098050;28;20477;-73
2021/04/17 01:11:32;;;;;;;19.73;9.43;;;4.40;86.90;;;;;;5101180;28;20419;-71
2021/04/17 01:13:59;;;;;;;19.13;9.30;;;4.30;86.90;;;;;;5102276;28;20435;-73
2021/04/17 01:16:26;;;;;;;15.83;9.20;;;4.30;87.10;;;;;;5110074;28;20424;-72
2021/04/17 01:18:53;;;;;;;16.70;9.53;;;4.30;87.40;;;;;;5108039;28;20480;-71
2021/04/17 01:21:21;;;;;;;17.23;9.27;;;4.30;87.60;;;;;;5110926;28;20428;-72
2021/04/17 01:23:54;;;;;;;16.33;9.20;;;4.30;87.40;;;;;;5112587;28;20424;-72
2021/04/17 01:26:23;;;;;;;14.57;8.77;;;4.40;87.60;;;;;;5113707;28;20424;-72
2021/04/17 01:28:53;;;;;;;16.80;8.43;;;4.40;87.30;;;;;;5101308;28;20472;-72
2021/04/17 01:31:23;;;;;;;18.00;9.90;;;4.40;87.10;;;;;;5104879;28;20433;-71
2021/04/17 01:33:51;;;;;;;18.93;9.50;;;4.40;87.00;;;;;;5114378;28;20511;-72
2021/04/17 01:36:18;;;;;;;17.90;9.37;;;4.40;86.90;;;;;;5117519;27;20428;-72
2021/04/17 01:38:56;;;;;;;17.33;9.80;;;4.40;86.90;;;;;;5112356;28;20970;-71
2021/04/17 01:41:28;;;;;;;17.50;9.27;;;4.40;86.90;;;;;;5096103;28;20425;-72
2021/04/17 01:43:57;;;;;;;19.07;9.70;;;4.30;87.10;;;;;;5097532;28;20515;-70
2021/04/17 01:46:28;;;;;;;17.33;9.73;;;4.20;87.60;;;;;;5110010;28;20409;-71
2021/04/17 01:49:00;;;;;;;16.10;9.47;;;4.10;88.10;;;;;;5107101;28;20516;-72
2021/04/17 01:51:27;;;;;;;18.70;9.73;;;4.10;88.40;;;;;;5106650;28;20494;-70
2021/04/17 01:53:56;;;;;;;17.90;10.73;;;4.10;88.30;;;;;;5098328;28;20429;-71
2021/04/17 01:56:24;;;;;;;21.83;10.40;;;4.10;88.30;;;;;;5088770;28;20449;-72
2021/04/17 01:58:51;;;;;;;16.67;9.57;;;4.10;88.40;;;;;;5099283;28;20498;-72
2021/04/17 02:01:20;;;;;;;18.90;9.27;;;4.10;88.60;;;;;;5109023;28;20417;-73
2021/04/17 02:03:47;;;;;;;19.00;9.97;;;4.00;88.90;;;;;;5109835;27;20424;-73
2021/04/17 02:06:14;;;;;;;14.70;8.37;;;4.10;88.90;;;;;;5109640;28;20458;-72
2021/04/17 02:08:40;;;;;;;18.20;9.80;;;4.10;88.90;;;;;;5108692;28;20431;-74
2021/04/17 02:11:06;;;;;;;22.23;10.20;;;4.10;88.90;;;;;;5108948;28;20427;-72
2021/04/17 02:13:37;;;;;;;18.87;10.37;;;4.10;88.90;;;;;;5109309;28;20420;-72
2021/04/17 02:16:07;;;;;;;17.57;9.60;;;4.10;89.20;;;;;;5108992;28;20466;-71
2021/04/17 02:18:59;;;;;;;19.60;10.10;;;4.00;89.30;;;;;;5108556;28;20464;-74
2021/04/17 02:21:51;;;;;;;18.93;10.40;;;4.10;89.30;;;;;;5098816;28;20420;-72
2021/04/17 02:24:17;;;;;;;21.13;10.17;;;4.00;89.50;;;;;;5093680;28;20432;-73
2021/04/17 02:26:43;;;;;;;16.60;10.00;;;4.00;89.30;;;;;;5109096;28;20781;-73
2021/04/17 02:29:09;;;;;;;19.13;10.30;;;4.00;89.30;;;;;;5108087;28;21042;-73
2021/04/17 02:31:35;;;;;;;20.13;10.60;;;4.00;89.30;;;;;;5107373;28;20535;-73
2021/04/17 02:34:02;;;;;;;19.40;10.07;;;4.00;89.30;;;;;;5107807;28;20592;-71
2021/04/17 02:36:28;;;;;;;22.43;11.00;;;4.00;89.60;;;;;;5108302;28;20504;-72
2021/04/17 02:38:53;;;;;;;19.53;10.23;;;4.00;89.60;;;;;;5109411;28;20998;-73
2021/04/17 02:41:19;;;;;;;17.73;8.80;;;4.00;89.70;;;;;;5107409;28;20436;-72
2021/04/17 02:43:46;;;;;;;21.17;10.27;;;4.00;89.60;;;;;;5108724;28;20845;-72
2021/04/17 02:46:11;;;;;;;20.70;10.60;;;4.00;89.60;;;;;;5096121;28;20191;-72
2021/04/17 02:48:38;;;;;;;21.60;11.00;;;4.10;89.50;;;;;;5107464;28;20420;-73
2021/04/17 02:51:04;;;;;;;22.83;10.53;;;4.10;89.50;;;;;;5109098;28;20734;-72
2021/04/17 02:53:30;;;;;;;20.07;10.13;;;4.10;89.30;;;;;;5108091;28;20947;-72
2021/04/17 02:55:56;;;;;;;26.30;12.07;;;4.10;89.20;;;;;;5108936;28;20424;-72
2021/04/17 02:58:22;;;;;;;21.70;11.70;;;4.00;89.30;;;;;;5088029;28;20461;-72
2021/04/17 03:00:48;;;;;;;21.73;10.50;;;4.00;89.50;;;;;;5102169;28;20426;-72
2021/04/17 03:03:14;;;;;;;18.43;10.90;;;4.10;89.50;;;;;;5090642;28;20457;-72
2021/04/17 03:05:40;;;;;;;23.80;11.53;;;4.10;89.30;;;;;;5094884;28;20441;-73
2021/04/17 03:08:07;;;;;;;19.33;10.70;;;4.00;89.20;;;;;;5109115;28;20199;-70
2021/04/17 03:10:33;;;;;;;19.83;10.50;;;4.00;89.50;;;;;;5087007;28;20953;-71
2021/04/17 03:12:59;;;;;;;20.43;10.93;;;4.00;89.60;;;;;;5101315;28;20443;-73
2021/04/17 03:15:25;;;;;;;22.77;12.67;;;4.00;89.60;;;;;;5102452;28;20495;-72
2021/04/17 03:17:50;;;;;;;19.23;11.00;;;4.00;89.60;;;;;;5088226;28;20947;-71
2021/04/17 03:20:16;;;;;;;21.60;10.83;;;4.00;90.00;;;;;;5088447;28;20207;-71
2021/04/17 03:22:42;;;;;;;21.30;11.10;;;4.00;89.90;;;;;;5107812;28;20603;-72
2021/04/17 03:25:10;;;;;;;26.93;12.30;;;4.00;89.90;;;;;;5108824;28;20416;-72
2021/04/17 03:27:37;;;;;;;21.90;11.20;;;3.90;90.00;;;;;;5111963;28;20191;-72
2021/04/17 03:30:07;;;;;;;20.53;10.90;;;3.90;90.10;;;;;;5111447;28;21034;-72
2021/04/17 03:32:33;;;;;;;23.83;11.50;;;4.00;90.10;;;;;;5114889;28;20454;-72
2021/04/17 03:34:58;;;;;;;22.90;11.00;;;4.00;90.10;;;;;;5115939;28;20424;-71
2021/04/17 03:37:24;;;;;;;20.33;10.30;;;3.90;90.20;;;;;;5107578;28;20934;-71
2021/04/17 03:39:50;;;;;;;20.90;11.33;;;4.00;90.20;;;;;;5118319;28;20742;-73
2021/04/17 03:42:15;;;;;;;19.17;11.20;;;3.90;90.20;;;;;;5117584;28;20213;-71
2021/04/17 03:44:41;;;;;;;23.00;12.17;;;3.90;90.30;;;;;;5114525;28;20190;-71
2021/04/17 03:47:07;;;;;;;19.73;11.17;;;3.90;90.30;;;;;;5114220;28;20275;-71
2021/04/17 03:49:32;;;;;;;23.40;11.30;;;3.90;90.40;;;;;;5112770;28;20234;-72
2021/04/17 03:51:58;;;;;;;25.10;13.00;;;3.90;90.50;;;;;;5113195;28;20732;-72
2021/04/17 03:54:24;;;;;;;19.30;11.27;;;4.00;90.40;;;;;;5112908;28;20186;-70
2021/04/17 03:56:50;;;;;;;23.27;12.20;;;4.10;90.30;;;;;;5112820;28;20190;-70
2021/04/17 03:59:15;;;;;;;25.47;12.17;;;4.10;90.20;;;;;;5110963;28;20252;-72
2021/04/17 04:01:41;;;;;;;18.77;10.53;;;4.10;90.20;;;;;;5112341;28;20178;-73
2021/04/17 04:04:07;;;;;;;23.20;12.00;;;4.10;90.30;;;;;;5112469;28;20184;-72
2021/04/17 04:06:33;;;;;;;25.93;12.03;;;4.00;90.20;;;;;;5112427;28;20416;-72
2021/04/17 04:08:59;;;;;;;20.43;11.97;;;4.00;90.30;;;;;;5109952;28;20685;-70
2021/04/17 04:11:24;;;;;;;20.00;11.47;;;4.00;90.50;;;;;;5111628;28;20571;-73
2021/04/17 04:13:50;;;;;;;29.30;11.93;;;3.90;90.50;;;;;;5111629;28;20664;-73
2021/04/17 04:16:16;;;;;;;30.87;14.23;;;3.90;90.70;;;;;;5111488;28;20193;-72
2021/04/17 04:18:41;;;;;;;25.60;12.73;;;4.00;90.90;;;;;;5109597;28;20288;-72
2021/04/17 04:21:07;;;;;;;23.40;13.27;;;4.00;91.00;;;;;;5098357;28;20252;-71
2021/04/17 04:23:33;;;;;;;24.90;12.13;;;4.00;91.00;;;;;;5111081;28;20210;-71
2021/04/17 04:25:58;;;;;;;20.50;12.80;;;4.00;90.90;;;;;;5110243;28;20614;-72
2021/04/17 04:28:24;;;;;;;24.50;12.67;;;3.90;90.90;;;;;;5110618;28;20228;-72
2021/04/17 04:30:50;;;;;;;23.47;13.00;;;3.90;91.00;;;;;;5110664;28;20270;-72
2021/04/17 04:33:16;;;;;;;28.17;13.73;;;3.90;91.10;;;;;;5110897;28;20197;-71
2021/04/17 04:35:42;;;;;;;26.80;14.10;;;3.90;91.20;;;;;;5110510;28;20519;-71
2021/04/17 04:38:07;;;;;;;25.03;13.03;;;3.80;91.20;;;;;;5110332;28;20202;-72
2021/04/17 04:40:33;;;;;;;22.87;13.43;;;3.80;91.50;;;;;;5098185;28;20559;-72
2021/04/17 04:42:59;;;;;;;27.90;14.60;;;3.80;91.60;;;;;;5110675;28;20668;-72
2021/04/17 04:45:25;;;;;;;28.90;15.40;;;3.80;91.60;;;;;;5110537;28;20189;-72
2021/04/17 04:47:50;;;;;;;28.63;16.07;;;3.80;91.50;;;;;;5110287;28;20178;-71
2021/04/17 04:50:16;;;;;;;25.23;14.37;;;3.80;91.50;;;;;;5110054;28;20246;-72
2021/04/17 04:52:42;;;;;;;25.00;13.83;;;3.80;91.70;;;;;;5114283;28;20270;-71
2021/04/17 04:55:08;;;;;;;22.90;12.77;;;3.80;91.90;;;;;;5112279;28;20663;-72
2021/04/17 04:57:34;;;;;;;29.00;14.87;;;3.80;91.80;;;;;;5110224;28;20187;-72
2021/04/17 05:00:00;;;;;;;26.43;13.63;;;3.80;91.70;;;;;;5087833;28;21176;-72
2021/04/17 05:02:26;;;;;;;26.40;15.33;;;3.80;91.70;;;;;;5090113;28;20416;-72
2021/04/17 05:04:52;;;;;;;28.10;14.50;;;3.80;91.70;;;;;;5096602;28;20421;-72
2021/04/17 05:07:18;;;;;;;34.40;15.20;;;3.80;91.70;;;;;;5109545;28;20260;-72
2021/04/17 05:09:43;;;;;;;26.10;14.87;;;3.80;91.80;;;;;;5110208;28;20230;-71
2021/04/17 05:12:09;;;;;;;29.67;15.30;;;3.90;91.80;;;;;;5122405;28;20183;-72
2021/04/17 05:14:35;;;;;;;27.70;13.83;;;3.90;91.70;;;;;;5110904;28;20220;-72
2021/04/17 05:17:01;;;;;;;30.10;14.53;;;3.90;91.60;;;;;;5123730;28;20923;-73
2021/04/17 05:19:27;;;;;;;28.47;14.67;;;4.00;91.70;;;;;;5116524;28;20313;-72
2021/04/17 05:21:52;;;;;;;29.37;15.83;;;4.00;91.80;;;;;;5102539;28;20187;-73
2021/04/17 05:24:18;;;;;;;31.00;15.70;;;4.10;91.90;;;;;;5122679;28;20189;-72
2021/04/17 05:26:44;;;;;;;27.60;13.47;;;4.20;91.90;;;;;;5121738;28;20204;-72
2021/04/17 05:29:10;;;;;;;28.43;15.07;;;4.30;91.40;;;;;;5119203;28;20416;-71
2021/04/17 05:31:36;;;;;;;27.87;14.70;;;4.30;91.10;;;;;;5114303;28;20297;-72
2021/04/17 05:34:02;;;;;;;28.67;15.37;;;4.30;91.10;;;;;;5112246;28;20840;-73
2021/04/17 05:36:28;;;;;;;26.53;15.17;;;4.50;90.90;;;;;;5115795;28;20214;-73
2021/04/17 05:38:54;;;;;;;25.27;14.53;;;4.60;90.40;;;;;;5110521;28;21002;-72
2021/04/17 05:41:20;;;;;;;30.13;15.30;;;4.70;89.90;;;;;;5111366;28;20598;-73
2021/04/17 05:43:46;;;;;;;27.33;14.40;;;4.80;89.50;;;;;;5093412;28;20428;-72
2021/04/17 05:46:12;;;;;;;23.97;13.87;;;4.80;89.00;;;;;;5089543;28;20417;-71
2021/04/17 05:48:38;;;;;;;25.90;14.57;;;4.80;88.60;;;;;;5096579;28;20955;-71
2021/04/17 05:51:04;;;;;;;31.30;15.57;;;4.90;88.10;;;;;;5111591;28;20266;-73
2021/04/17 05:53:30;;;;;;;29.90;13.80;;;4.90;87.80;;;;;;5099423;28;20575;-72
2021/04/17 05:55:56;;;;;;;27.03;14.40;;;4.90;87.70;;;;;;5110556;28;20534;-73
2021/04/17 05:58:21;;;;;;;23.60;13.80;;;5.00;87.60;;;;;;5109700;28;20224;-72
2021/04/17 06:00:47;;;;;;;25.27;14.00;;;5.10;87.30;;;;;;5108111;28;20209;-72
2021/04/17 06:03:13;;;;;;;28.67;15.20;;;5.20;86.90;;;;;;5108687;28;20270;-71
2021/04/17 06:05:38;;;;;;;30.23;15.13;;;5.20;86.50;;;;;;5110177;28;20182;-71
2021/04/17 06:08:05;;;;;;;28.67;15.07;;;5.30;86.00;;;;;;5102793;28;20240;-71
2021/04/17 06:10:31;;;;;;;29.60;13.17;;;5.30;86.30;;;;;;5087827;28;20207;-72
2021/04/17 06:12:56;;;;;;;26.50;14.23;;;5.50;85.60;;;;;;5089743;28;20461;-71
2021/04/17 06:15:24;;;;;;;29.83;15.00;;;5.40;85.20;;;;;;5109949;28;20625;-71
2021/04/17 06:17:49;;;;;;;30.13;14.63;;;5.50;85.20;;;;;;5100447;28;20224;-72
2021/04/17 06:20:15;;;;;;;32.43;14.70;;;5.50;84.70;;;;;;5096731;28;20433;-70
2021/04/17 06:22:41;;;;;;;30.10;15.03;;;5.60;84.30;;;;;;5104222;28;20616;-72
2021/04/17 06:25:09;;;;;;;25.30;13.50;;;5.80;83.30;;;;;;5103654;28;20477;-72
2021/04/17 06:27:34;;;;;;;29.27;14.53;;;5.80;83.10;;;;;;5109563;28;20210;-72
2021/04/17 06:30:01;;;;;;;27.50;14.93;;;5.90;83.00;;;;;;5109631;28;20510;-70
2021/04/17 06:32:27;;;;;;;28.30;14.47;;;6.10;82.20;;;;;;5110474;28;20412;-72
2021/04/17 06:34:52;;;;;;;33.20;16.30;;;6.20;81.50;;;;;;5110342;28;20485;-72
2021/04/17 06:37:18;;;;;;;26.90;13.47;;;6.20;80.80;;;;;;5109532;28;20786;-71
2021/04/17 06:39:44;;;;;;;30.13;15.67;;;6.10;80.90;;;;;;5108792;28;20210;-71
2021/04/17 06:42:12;;;;;;;28.27;14.20;;;6.10;81.20;;;;;;5089807;28;20229;-72
2021/04/17 06:44:42;;;;;;;30.17;15.33;;;6.10;81.50;;;;;;5101832;28;20542;-70
2021/04/17 06:47:09;;;;;;;28.60;14.83;;;6.20;81.10;;;;;;5110042;28;20424;-72
2021/04/17 06:49:35;;;;;;;30.83;15.17;;;6.20;80.60;;;;;;5097503;28;20442;-72
2021/04/17 06:52:02;;;;;;;27.37;15.87;;;6.30;80.90;;;;;;5112351;28;20423;-72
2021/04/17 06:54:28;;;;;;;28.57;14.90;;;6.40;81.10;;;;;;5109281;28;20507;-73
2021/04/17 06:56:54;;;;;;;26.97;14.00;;;6.50;79.90;;;;;;5108330;28;20935;-71
2021/04/17 06:59:20;;;;;;;28.97;14.93;;;6.70;79.30;;;;;;5109052;28;21012;-71
2021/04/17 07:01:46;;;;;;;29.77;15.40;;;6.80;79.00;;;;;;5112464;28;20489;-71
2021/04/17 07:04:14;;;;;;;30.23;15.03;;;6.80;78.40;;;;;;5116001;28;20661;-72
2021/04/17 07:06:40;;;;;;;27.80;14.33;;;6.80;78.10;;;;;;5116607;28;20426;-72
2021/04/17 07:09:06;;;;;;;28.67;15.30;;;6.90;77.70;;;;;;5115957;28;20556;-72
2021/04/17 07:11:31;;;;;;;24.90;15.07;;;6.90;77.40;;;;;;5115172;28;20187;-72
2021/04/17 07:14:23;;;;;;;28.83;15.03;;;6.90;76.70;;;;;;5101498;28;20486;-72
2021/04/17 07:17:04;;;;;;;25.83;13.67;;;7.10;76.80;;;;;;5094742;28;20705;-73
2021/04/17 07:19:48;;;;;;;27.93;14.77;;;7.10;76.20;;;;;;5099000;28;20893;-72
2021/04/17 07:22:35;;;;;;;30.60;14.77;;;7.20;76.40;;;;;;5122546;28;20429;-73
2021/04/17 07:25:07;;;;;;;22.97;13.80;;;7.30;76.40;;;;;;5109276;28;20417;-72
2021/04/17 07:27:52;;;;;;;30.07;14.27;;;7.40;75.40;;;;;;5112659;28;20425;-74
2021/04/17 07:30:18;;;;;;;34.47;15.37;;;7.40;74.90;;;;;;5128361;28;20496;-72
2021/04/17 07:33:04;;;;;;;27.90;15.40;;;7.20;74.50;;;;;;5127785;28;20412;-73
2021/04/17 07:35:45;;;;;;;31.27;16.50;;;7.20;75.20;;;;;;5115437;28;20736;-72
2021/04/17 07:38:18;;;;;;;29.73;14.00;;;7.30;75.40;;;;;;5113806;28;20479;-71
2021/04/17 07:40:46;;;;;;;29.20;16.37;;;7.40;75.20;;;;;;5111438;28;20528;-72
2021/04/17 07:43:17;;;;;;;28.27;14.80;;;7.60;74.80;;;;;;5117066;28;20507;-69
2021/04/17 07:45:43;;;;;;;26.83;14.37;;;7.80;74.00;;;;;;5115661;28;20408;-71
2021/04/17 07:48:28;;;;;;;22.90;12.70;;;8.00;72.60;;;;;;5114426;27;20427;-69
2021/04/17 07:50:55;;;;;;;25.37;12.50;;;8.10;70.40;;;;;;5100470;28;20410;-70
2021/04/17 07:53:37;;;;;;;28.00;13.70;;;8.30;69.80;;;;;;5096366;28;20423;-70
2021/04/17 07:56:24;;;;;;;24.80;13.53;;;8.30;68.50;;;;;;5112372;28;20911;-70
2021/04/17 07:58:52;;;;;;;22.20;11.87;;;8.20;67.70;;;;;;5116063;28;20456;-69
2021/04/17 08:01:19;;;;;;;24.00;13.60;;;8.10;68.90;;;;;;5115104;28;20420;-69
2021/04/17 08:03:46;;;;;;;22.50;12.63;;;8.00;68.50;;;;;;5120570;28;20508;-70
2021/04/17 08:06:16;;;;;;;26.63;12.80;;;8.00;68.80;;;;;;5117025;28;21003;-71
2021/04/17 08:08:43;;;;;;;27.77;13.23;;;8.00;68.60;;;;;;5093000;28;20421;-71
2021/04/17 08:11:11;;;;;;;26.50;13.70;;;8.10;68.00;;;;;;5108863;28;20935;-69
2021/04/17 08:13:41;;;;;;;28.67;14.07;;;8.20;68.00;;;;;;5095749;28;20504;-71
2021/04/17 08:16:09;;;;;;;24.80;13.40;;;8.30;67.50;;;;;;5105398;28;20424;-71
2021/04/17 08:18:36;;;;;;;22.57;12.50;;;8.50;67.00;;;;;;5091626;28;20464;-71
2021/04/17 08:21:05;;;;;;;25.83;12.57;;;8.50;66.30;;;;;;5091382;28;20508;-71
2021/04/17 08:23:31;;;;;;;21.80;12.60;;;8.20;66.30;;;;;;5095653;28;20431;-70
2021/04/17 08:25:58;;;;;;;23.60;12.70;;;8.10;67.70;;;;;;5094237;28;20953;-71
2021/04/17 08:28:27;;;;;;;25.77;14.07;;;8.20;68.20;;;;;;5104913;28;20470;-72
2021/04/17 08:31:30;;;;;;;21.73;11.97;;;8.30;68.20;;;;;;5112976;27;20452;-71
2021/04/17 08:34:06;;;;;;;23.60;13.37;;;8.50;67.00;;;;;;5108044;28;20502;-71
2021/04/17 08:36:39;;;;;;;30.53;11.43;;;8.60;66.10;;;;;;5090470;28;20488;-71
2021/04/17 08:39:06;;;;;;;19.53;12.17;;;8.70;65.60;;;;;;5092248;28;20461;-71
2021/04/17 08:41:43;;;;;;;23.13;12.80;;;8.80;64.70;;;;;;5108471;28;20436;-72
2021/04/17 08:44:33;;;;;;;20.30;10.60;;;8.80;64.10;;;;;;5100267;28;20444;-72
2021/04/17 08:47:00;;;;;;;19.50;10.00;;;8.90;64.40;;;;;;5095776;28;20411;-71
2021/04/17 08:49:31;;;;;;;22.60;11.73;;;9.10;63.10;;;;;;5094948;28;20429;-70
2021/04/17 08:52:09;;;;;;;23.17;12.13;;;9.20;63.10;;;;;;5090623;28;20421;-70
2021/04/17 08:54:37;;;;;;;19.27;10.40;;;9.30;62.50;;;;;;5091690;28;20421;-71
2021/04/17 08:57:16;;;;;;;17.90;9.00;;;9.30;60.90;;;;;;5099714;28;20433;-72
2021/04/17 08:59:51;;;;;;;18.00;9.77;;;9.30;60.40;;;;;;5091681;28;20843;-70
2021/04/17 09:02:19;;;;;;;22.37;10.77;;;9.20;59.50;;;;;;5092376;28;20427;-72
2021/04/17 09:05:01;;;;;;;19.80;9.27;;;8.70;61.70;;;;;;5094458;28;20500;-71
2021/04/17 09:07:28;;;;;;;14.60;8.07;;;8.80;61.70;;;;;;5100272;28;20420;-72
2021/04/17 09:09:55;;;;;;;16.30;9.40;;;9.10;61.00;;;;;;5091295;28;21016;-71
2021/04/17 09:12:27;;;;;;;18.47;9.47;;;9.40;60.10;;;;;;5090140;28;20469;-71
2021/04/17 09:14:55;;;;;;;18.07;10.27;;;9.70;59.60;;;;;;5101186;28;20404;-71
2021/04/17 09:17:41;;;;;;;17.33;9.40;;;9.90;58.70;;;;;;5093582;28;20409;-72
2021/04/17 09:20:10;;;;;;;16.17;9.27;;;10.00;58.10;;;;;;5091041;28;20468;-71
2021/04/17 09:22:41;;;;;;;17.20;10.00;;;10.10;58.00;;;;;;5090634;28;20425;-72
2021/04/17 09:25:10;;;;;;;19.80;11.10;;;9.90;57.40;;;;;;5101063;28;20420;-71
2021/04/17 09:27:50;;;;;;;18.27;10.83;;;9.60;59.20;;;;;;5098286;28;20413;-71
2021/04/17 09:30:21;;;;;;;16.00;9.10;;;9.70;59.10;;;;;;5111077;28;20468;-72
2021/04/17 09:32:50;;;;;;;22.37;10.27;;;10.00;57.30;;;;;;5112073;28;20950;-70
2021/04/17 09:35:32;;;;;;;15.93;9.43;;;10.10;57.20;;;;;;5110744;28;20419;-72
2021/04/17 09:38:18;;;;;;;19.33;9.90;;;9.90;57.30;;;;;;5111203;28;20465;-71
2021/04/17 09:40:52;;;;;;;20.43;11.10;;;9.50;58.10;;;;;;5100978;28;20882;-71
2021/04/17 09:43:25;;;;;;;14.90;9.40;;;9.00;60.10;;;;;;5096590;28;20408;-71
2021/04/17 09:45:52;;;;;;;19.87;9.93;;;8.90;60.60;;;;;;5101092;28;20494;-72
2021/04/17 09:48:21;;;;;;;17.23;9.67;;;9.10;60.60;;;;;;5095003;28;20422;-71
2021/04/17 09:50:48;;;;;;;18.27;10.07;;;9.10;60.00;;;;;;5092445;28;21042;-71
2021/04/17 09:53:16;;;;;;;14.67;9.40;;;9.20;60.00;;;;;;5091301;28;20417;-72
2021/04/17 09:55:55;;;;;;;19.90;11.10;;;9.20;60.00;;;;;;5090770;28;20417;-70
2021/04/17 09:58:30;;;;;;;17.60;9.70;;;9.50;59.70;;;;;;5090892;28;20449;-72
2021/04/17 10:01:09;;;;;;;18.67;10.00;;;9.80;58.80;;;;;;5091289;28;20485;-72
2021/04/17 10:03:37;;;;;;;20.17;10.10;;;10.10;57.80;;;;;;5092913;28;20405;-72
2021/04/17 10:06:04;;;;;;;19.90;10.10;;;10.20;57.30;;;;;;5091543;28;20424;-72
2021/04/17 10:08:35;;;;;;;12.47;7.60;;;10.20;57.20;;;;;;5088529;28;20425;-71
2021/04/17 10:11:04;;;;;;;14.87;8.03;;;10.10;55.40;;;;;;5094536;28;20478;-72
2021/04/17 10:13:44;;;;;;;16.00;8.10;;;10.10;54.90;;;;;;5091079;28;20428;-71
2021/04/17 10:16:12;;;;;;;10.47;7.30;;;10.30;54.60;;;;;;5090514;28;20532;-73
2021/04/17 10:18:41;;;;;;;13.40;6.70;;;10.50;54.10;;;;;;5089580;28;20992;-71
2021/04/17 10:21:08;;;;;;;18.60;7.77;;;10.40;53.60;;;;;;5107272;28;20954;-71
2021/04/17 10:23:34;;;;;;;13.00;7.53;;;10.50;53.30;;;;;;5110675;28;20915;-72
2021/04/17 10:26:10;;;;;;;14.00;8.00;;;10.40;53.30;;;;;;5109013;28;20511;-71
2021/04/17 10:28:37;;;;;;;11.17;7.37;;;10.30;53.70;;;;;;5109390;28;20522;-72
2021/04/17 10:31:18;;;;;;;14.13;7.40;;;10.50;53.40;;;;;;5105044;28;20437;-72
2021/04/17 10:33:46;;;;;;;13.73;7.67;;;10.40;52.40;;;;;;5097361;28;20435;-71
2021/04/17 10:36:22;;;;;;;12.60;7.20;;;10.00;53.60;;;;;;5094633;28;20605;-71
2021/04/17 10:38:49;;;;;;;11.90;7.10;;;10.10;53.40;;;;;;5093461;28;20475;-73
2021/04/17 10:41:29;;;;;;;12.97;7.57;;;10.30;53.30;;;;;;5095510;28;20486;-71
2021/04/17 10:44:12;;;;;;;9.87;6.70;;;10.40;52.50;;;;;;5093296;28;20927;-71
2021/04/17 10:46:43;;;;;;;8.80;6.37;;;10.60;52.10;;;;;;5092439;28;20421;-71
2021/04/17 10:49:09;;;;;;;13.17;7.00;;;10.70;52.10;;;;;;5105609;28;20500;-71
2021/04/17 10:51:39;;;;;;;11.90;6.73;;;10.90;51.80;;;;;;5109512;28;20428;-72
2021/04/17 10:54:05;;;;;;;9.43;6.13;;;10.90;51.70;;;;;;5095834;28;20520;-72
2021/04/17 10:56:31;;;;;;;9.53;6.10;;;10.80;50.60;;;;;;5091014;28;20512;-71
2021/04/17 10:59:00;;;;;;;11.67;6.60;;;10.70;51.00;;;;;;5102590;28;20549;-71
2021/04/17 11:01:28;;;;;;;11.63;6.60;;;10.60;51.20;;;;;;5090704;28;20436;-72
2021/04/17 11:04:00;;;;;;;9.33;6.00;;;10.80;51.20;;;;;;5091365;28;20466;-72
2021/04/17 11:06:32;;;;;;;10.97;6.10;;;11.00;50.10;;;;;;5108379;28;20428;-72
2021/04/17 11:09:11;;;;;;;12.90;6.63;;;11.20;49.10;;;;;;5096119;28;20473;-72
2021/04/17 11:11:50;;;;;;;10.77;6.20;;;11.50;48.60;;;;;;5090331;28;20441;-71
2021/04/17 11:14:23;;;;;;;12.67;6.23;;;11.20;48.20;;;;;;5091301;28;20920;-73
2021/04/17 11:16:53;;;;;;;12.27;5.80;;;11.20;48.90;;;;;;5103168;28;20951;-72
2021/04/17 11:19:37;;;;;;;9.47;5.40;;;11.10;49.00;;;;;;5090935;28;20456;-72
2021/04/17 11:22:16;;;;;;;8.50;5.57;;;11.10;48.50;;;;;;5090878;28;20421;-74
2021/04/17 11:24:57;;;;;;;15.43;5.90;;;11.30;48.20;;;;;;5101972;28;20441;-71
2021/04/17 11:27:23;;;;;;;10.47;6.00;;;11.00;48.90;;;;;;5111604;27;20404;-73
2021/04/17 11:29:49;;;;;;;10.13;5.20;;;11.10;49.40;;;;;;5111399;28;20464;-71
2021/04/17 11:32:15;;;;;;;6.43;4.70;;;11.50;48.50;;;;;;5112555;28;20427;-71
2021/04/17 11:34:45;;;;;;;11.53;6.30;;;11.70;47.70;;;;;;5117519;28;20187;-71
2021/04/17 11:37:12;;;;;;;11.73;6.03;;;11.90;47.30;;;;;;5121916;28;20479;-72
2021/04/17 11:39:37;;;;;;;12.60;5.83;;;12.00;47.10;;;;;;5116523;28;20556;-71
2021/04/17 11:42:03;;;;;;;15.57;5.90;;;11.80;46.60;;;;;;5102501;28;20482;-73
2021/04/17 11:44:29;;;;;;;8.20;5.47;;;11.50;47.00;;;;;;5112475;28;20194;-72
2021/04/17 11:46:57;;;;;;;9.77;5.50;;;11.60;47.00;;;;;;5112082;28;20499;-72
2021/04/17 11:49:23;;;;;;;11.17;5.77;;;11.40;47.00;;;;;;5114428;28;20749;-73
2021/04/17 11:51:49;;;;;;;7.20;4.93;;;11.40;47.40;;;;;;5115435;28;20507;-72
2021/04/17 11:54:15;;;;;;;7.40;4.60;;;11.80;46.20;;;;;;5114867;28;20576;-72
2021/04/17 11:56:41;;;;;;;8.80;4.70;;;12.20;44.70;;;;;;5112916;28;20888;-71
2021/04/17 11:59:06;;;;;;;7.60;5.00;;;12.50;44.50;;;;;;5112091;28;20229;-72
2021/04/17 12:01:34;;;;;;;9.07;5.83;;;12.90;43.40;;;;;;5112935;28;20197;-72
2021/04/17 12:03:59;;;;;;;12.60;6.20;;;13.20;42.60;;;;;;5112661;28;20554;-71
2021/04/17 12:06:29;;;;;;;9.60;4.90;;;12.90;42.20;;;;;;5111074;28;20421;-71
2021/04/17 12:08:58;;;;;;;7.70;5.23;;;12.80;42.60;;;;;;5111582;28;20615;-71
2021/04/17 12:11:25;;;;;;;12.73;5.33;;;12.80;43.20;;;;;;5112595;28;20428;-72
2021/04/17 12:13:52;;;;;;;9.17;4.63;;;12.50;42.70;;;;;;5114963;28;20495;-71
2021/04/17 12:16:18;;;;;;;8.63;5.03;;;12.60;43.40;;;;;;5096102;28;20425;-72
2021/04/17 12:18:45;;;;;;;8.47;4.90;;;12.80;42.30;;;;;;5114323;28;20462;-72
2021/04/17 12:21:10;;;;;;;10.10;5.77;;;12.70;42.80;;;;;;5108765;28;20425;-70
2021/04/17 12:23:36;;;;;;;11.53;6.00;;;12.60;42.70;;;;;;5101947;28;21255;-71
2021/04/17 12:26:02;;;;;;;10.53;4.77;;;12.70;42.80;;;;;;5111656;28;20573;-72
2021/04/17 12:28:28;;;;;;;9.60;5.13;;;12.80;42.70;;;;;;5105419;28;20527;-72
2021/04/17 12:30:56;;;;;;;12.27;5.23;;;12.50;43.00;;;;;;5112767;28;20611;-72
2021/04/17 12:33:23;;;;;;;7.63;5.13;;;12.30;43.70;;;;;;5113213;27;20183;-71
2021/04/17 12:35:49;;;;;;;7.17;4.97;;;12.20;43.80;;;;;;5113476;28;20424;-72
2021/04/17 12:38:15;;;;;;;7.90;5.27;;;12.50;43.40;;;;;;5113090;28;20419;-72
2021/04/17 12:40:42;;;;;;;6.40;4.70;;;12.40;43.00;;;;;;5113662;28;20451;-72
2021/04/17 12:43:09;;;;;;;7.70;4.83;;;12.30;43.80;;;;;;5096829;28;20433;-72
2021/04/17 12:45:36;;;;;;;9.23;5.27;;;12.50;43.50;;;;;;5099722;28;20419;-71
2021/04/17 12:48:02;;;;;;;6.60;4.53;;;12.70;43.10;;;;;;5110478;28;20544;-72
2021/04/17 12:50:28;;;;;;;7.37;4.10;;;12.70;42.80;;;;;;5112103;28;20807;-71